Time;durP1;ratioP1;P1;durP2;ratioP2;P2;SDS_P1;SDS_P2;PMS_P1;PMS_P2;Temp;Humidity;BMP_temperature;BMP_pressure;BME280_temperature;BME280_humidity;BME280_pressure;Samples;Min_cycle;Max_cycle;Signal;HPM_P1;HPM_P2
2022/11/08 00:01:30;;;;;;;5.70;0.82;;;13.50;99.90;;;;;;4970029;28;20503;-39
2022/11/08 00:03:56;;;;;;;4.07;0.93;;;13.50;99.90;;;;;;4970889;28;20105;-38
2022/11/08 00:14:35;;;;;;;7.18;1.05;;;13.40;99.90;;;;;;4972950;28;20042;-40
2022/11/08 00:17:00;;;;;;;5.45;1.30;;;13.40;99.90;;;;;;4970128;28;20066;-38
2022/11/08 00:19:26;;;;;;;7.95;1.10;;;13.40;99.90;;;;;;4971083;28;20797;-38
2022/11/08 00:21:52;;;;;;;9.13;1.65;;;13.30;99.90;;;;;;4971045;28;20154;-38
2022/11/08 00:24:17;;;;;;;3.40;0.90;;;13.30;99.90;;;;;;4970737;28;20046;-38
2022/11/08 00:26:43;;;;;;;7.80;1.20;;;13.20;99.90;;;;;;4967598;28;20038;-39
2022/11/08 00:29:09;;;;;;;5.88;1.20;;;13.10;99.90;;;;;;4966649;28;20404;-38
2022/11/08 00:31:34;;;;;;;4.50;1.08;;;13.00;99.90;;;;;;4967942;28;20045;-39
2022/11/08 00:34:00;;;;;;;7.60;1.30;;;12.90;99.90;;;;;;4970622;28;20042;-38
2022/11/08 00:36:26;;;;;;;5.07;1.02;;;12.80;99.90;;;;;;4971871;28;20034;-38
2022/11/08 00:38:52;;;;;;;7.00;1.38;;;12.70;99.90;;;;;;4969183;28;20042;-38
2022/11/08 00:41:18;;;;;;;7.30;1.10;;;12.70;99.90;;;;;;4971211;28;20190;-38
2022/11/08 00:43:44;;;;;;;6.40;1.30;;;12.60;99.90;;;;;;4968246;28;20113;-38
2022/11/08 00:46:10;;;;;;;6.50;1.00;;;12.50;99.90;;;;;;4970818;28;20543;-38
2022/11/08 00:48:36;;;;;;;5.82;1.40;;;12.50;99.90;;;;;;4971925;28;20038;-38
2022/11/08 00:51:03;;;;;;;3.30;0.80;;;12.40;99.90;;;;;;4971545;28;20492;-39
2022/11/08 00:53:29;;;;;;;8.35;1.23;;;12.30;99.90;;;;;;4972280;28;20510;-39
2022/11/08 00:55:59;;;;;;;6.05;1.10;;;12.30;99.90;;;;;;4972450;28;20047;-38
2022/11/08 00:58:26;;;;;;;3.70;1.10;;;12.30;99.90;;;;;;4967639;28;20030;-39
2022/11/08 01:00:51;;;;;;;5.32;1.05;;;12.30;99.90;;;;;;4967047;28;20477;-38
2022/11/08 01:03:20;;;;;;;5.18;1.10;;;12.20;99.90;;;;;;4968741;28;20447;-39
2022/11/08 01:05:51;;;;;;;7.55;1.13;;;12.20;99.90;;;;;;4971457;28;20081;-38
2022/11/08 01:08:18;;;;;;;5.03;1.63;;;12.20;99.90;;;;;;4969470;28;20559;-38
2022/11/08 01:10:47;;;;;;;7.57;1.20;;;12.20;99.90;;;;;;4969318;28;20049;-38
2022/11/08 01:13:13;;;;;;;7.32;1.00;;;12.20;99.90;;;;;;4973842;28;20109;-38
2022/11/08 01:15:41;;;;;;;6.47;1.10;;;12.20;99.90;;;;;;4972319;28;20093;-38
2022/11/08 01:18:09;;;;;;;5.75;1.00;;;12.20;99.90;;;;;;4970800;28;20041;-38
2022/11/08 01:20:39;;;;;;;6.47;1.55;;;12.20;99.90;;;;;;4968906;28;20121;-41
2022/11/08 01:23:04;;;;;;;5.30;1.30;;;12.20;99.90;;;;;;4968291;28;20043;-38
2022/11/08 01:25:30;;;;;;;5.68;1.45;;;12.20;99.90;;;;;;4967612;28;20046;-39
2022/11/08 01:27:56;;;;;;;7.45;1.52;;;12.20;99.90;;;;;;4952946;28;20126;-37
2022/11/08 01:30:22;;;;;;;4.18;1.00;;;12.20;99.90;;;;;;4970177;28;20093;-38
2022/11/08 01:32:48;;;;;;;8.55;2.10;;;12.20;99.90;;;;;;4972136;28;20046;-38
2022/11/08 01:35:13;;;;;;;4.95;1.10;;;12.20;99.90;;;;;;4961010;28;20519;-38
2022/11/08 01:37:39;;;;;;;5.53;1.20;;;12.20;99.90;;;;;;4970187;28;20039;-38
2022/11/08 01:40:05;;;;;;;7.32;1.25;;;12.20;99.90;;;;;;4965102;28;20078;-39
2022/11/08 01:42:32;;;;;;;9.00;1.42;;;12.20;99.90;;;;;;4966683;28;20492;-38
2022/11/08 01:45:10;;;;;;;6.03;1.20;;;12.20;99.90;;;;;;4970080;28;20062;-38
2022/11/08 01:47:36;;;;;;;5.15;1.00;;;12.10;99.90;;;;;;4966780;28;20042;-38
2022/11/08 01:50:10;;;;;;;7.22;1.30;;;12.20;99.90;;;;;;4969221;28;20047;-38
2022/11/08 01:52:41;;;;;;;7.15;1.40;;;12.10;99.90;;;;;;4967858;28;20476;-38
2022/11/08 01:55:16;;;;;;;4.78;1.08;;;12.10;99.90;;;;;;4967635;28;20043;-39
2022/11/08 01:57:50;;;;;;;4.53;1.25;;;12.00;99.90;;;;;;4965025;28;20031;-38
2022/11/08 02:00:17;;;;;;;6.32;1.17;;;12.00;99.90;;;;;;4966155;28;20628;-38
2022/11/08 02:02:47;;;;;;;8.25;1.25;;;12.00;99.90;;;;;;4969424;28;20763;-38
2022/11/08 02:05:24;;;;;;;5.78;1.27;;;11.90;99.90;;;;;;4962290;28;20050;-38
2022/11/08 02:08:16;;;;;;;5.60;1.38;;;11.90;99.90;;;;;;4968848;28;20540;-39
2022/11/08 02:10:44;;;;;;;7.47;1.10;;;11.80;99.90;;;;;;4927910;28;20100;-38
2022/11/08 02:13:22;;;;;;;6.95;1.17;;;11.80;99.90;;;;;;4967290;28;20492;-38
2022/11/08 02:15:48;;;;;;;4.57;1.27;;;11.70;99.90;;;;;;4970081;28;20114;-38
2022/11/08 02:18:15;;;;;;;5.55;1.10;;;11.70;99.90;;;;;;4969950;28;20134;-37
2022/11/08 02:21:15;;;;;;;6.93;1.42;;;11.60;99.90;;;;;;4963128;28;20488;-38
2022/11/08 02:23:45;;;;;;;5.97;1.70;;;11.60;99.90;;;;;;4939900;28;20109;-39
2022/11/08 02:26:11;;;;;;;7.18;1.48;;;11.60;99.90;;;;;;4972612;28;20552;-38
2022/11/08 02:28:39;;;;;;;6.60;1.25;;;11.50;99.90;;;;;;4967092;28;20545;-39
2022/11/08 02:31:07;;;;;;;6.75;1.20;;;11.50;99.90;;;;;;4968350;28;20046;-38
2022/11/08 02:33:34;;;;;;;5.57;1.20;;;11.50;99.90;;;;;;4964405;28;20042;-39
2022/11/08 02:36:00;;;;;;;6.38;1.50;;;11.50;99.90;;;;;;4970089;28;20121;-38
2022/11/08 02:38:27;;;;;;;8.45;1.17;;;11.40;99.90;;;;;;4968151;28;20048;-38
2022/11/08 02:40:55;;;;;;;6.47;1.45;;;11.40;99.90;;;;;;4972744;28;20466;-38
2022/11/08 02:43:22;;;;;;;8.60;2.03;;;11.40;99.90;;;;;;4965042;28;20504;-38
2022/11/08 02:45:48;;;;;;;5.95;1.27;;;11.40;99.90;;;;;;4967546;28;20129;-38
2022/11/08 02:48:14;;;;;;;6.70;1.23;;;11.40;99.90;;;;;;4967732;28;20034;-38
2022/11/08 02:50:40;;;;;;;9.75;1.50;;;11.40;99.90;;;;;;4969717;28;20074;-39
2022/11/08 02:53:06;;;;;;;2.45;0.90;;;11.40;99.90;;;;;;4966629;28;20755;-39
2022/11/08 02:55:33;;;;;;;6.43;1.58;;;11.40;99.90;;;;;;4966564;28;20070;-40
2022/11/08 02:57:59;;;;;;;8.65;1.40;;;11.40;99.90;;;;;;4967418;28;20050;-38
2022/11/08 03:00:25;;;;;;;3.42;1.30;;;11.30;99.90;;;;;;4966319;28;20500;-38
2022/11/08 03:02:55;;;;;;;4.88;1.30;;;11.30;99.90;;;;;;4966558;28;20058;-38
2022/11/08 03:05:21;;;;;;;5.20;1.48;;;11.30;99.90;;;;;;4967296;28;20500;-38
2022/11/08 03:07:47;;;;;;;8.00;1.63;;;11.30;99.90;;;;;;4967388;28;20052;-40
2022/11/08 03:10:13;;;;;;;5.55;1.40;;;11.30;99.90;;;;;;4971496;28;20054;-38
2022/11/08 03:12:39;;;;;;;6.45;2.00;;;11.30;99.90;;;;;;4969637;28;20084;-38
2022/11/08 03:15:06;;;;;;;4.00;1.20;;;11.20;99.90;;;;;;4961564;28;20411;-38
2022/11/08 03:17:33;;;;;;;5.65;1.60;;;11.20;99.90;;;;;;4969065;28;20058;-38
2022/11/08 03:19:59;;;;;;;6.15;1.30;;;11.20;99.90;;;;;;4967716;28;20406;-38
2022/11/08 03:22:25;;;;;;;6.22;1.30;;;11.20;99.90;;;;;;4969364;28;20046;-39
2022/11/08 03:24:51;;;;;;;7.68;1.40;;;11.20;99.90;;;;;;4964471;28;20050;-38
2022/11/08 03:27:18;;;;;;;4.78;1.48;;;11.20;99.90;;;;;;4967492;28;20050;-38
2022/11/08 03:29:47;;;;;;;3.95;1.15;;;11.20;99.90;;;;;;4966215;28;20160;-38
2022/11/08 03:32:14;;;;;;;5.65;1.20;;;11.20;99.90;;;;;;4969798;28;20047;-38
2022/11/08 03:34:39;;;;;;;9.45;1.55;;;11.10;99.90;;;;;;4971145;28;20035;-38
2022/11/08 03:37:06;;;;;;;6.63;1.27;;;11.20;99.90;;;;;;4970245;28;20034;-39
2022/11/08 03:39:32;;;;;;;7.60;1.52;;;11.10;99.90;;;;;;4967238;28;20057;-38
2022/11/08 03:42:01;;;;;;;5.88;1.40;;;11.10;99.90;;;;;;4971338;28;20038;-38
2022/11/08 03:44:28;;;;;;;5.75;1.50;;;11.10;99.90;;;;;;4973651;28;20563;-40
2022/11/08 03:46:54;;;;;;;8.23;1.63;;;11.10;99.90;;;;;;4971617;28;20133;-38
2022/11/08 03:49:20;;;;;;;7.10;1.48;;;11.10;99.90;;;;;;4973789;28;20081;-38
2022/11/08 03:51:46;;;;;;;5.38;1.33;;;11.10;99.90;;;;;;4972080;28;20152;-38
2022/11/08 03:54:12;;;;;;;5.90;2.03;;;11.10;99.90;;;;;;4971283;28;20027;-38
2022/11/08 03:56:37;;;;;;;5.60;1.75;;;11.10;99.90;;;;;;4966057;28;20054;-38
2022/11/08 03:59:03;;;;;;;6.57;1.40;;;11.20;99.90;;;;;;4967322;28;20042;-37
2022/11/08 04:01:29;;;;;;;4.63;1.30;;;11.20;99.90;;;;;;4951963;28;20050;-38
2022/11/08 04:03:54;;;;;;;4.88;1.30;;;11.20;99.90;;;;;;4956614;28;20050;-38
2022/11/08 04:06:20;;;;;;;9.43;1.17;;;11.20;99.90;;;;;;4971012;28;20030;-40
2022/11/08 04:08:46;;;;;;;4.20;1.02;;;11.20;99.90;;;;;;4969867;28;20092;-41
2022/11/08 04:16:40;;;;;;;6.47;1.33;;;11.20;99.90;;;;;;4969261;28;20078;-38
2022/11/08 04:21:52;;;;;;;5.85;1.45;;;11.20;99.90;;;;;;4968107;28;20078;-39
2022/11/08 04:24:18;;;;;;;6.53;1.17;;;11.10;99.90;;;;;;4969619;28;20416;-39
2022/11/08 04:26:43;;;;;;;3.65;1.10;;;11.20;99.90;;;;;;4972246;28;20046;-38
2022/11/08 04:29:09;;;;;;;6.07;1.65;;;11.20;99.90;;;;;;4963861;28;20062;-38
2022/11/08 04:31:35;;;;;;;7.22;1.60;;;11.20;99.90;;;;;;4960975;28;20035;-40
2022/11/08 04:34:01;;;;;;;3.80;1.20;;;11.10;99.90;;;;;;4968225;28;20057;-38
2022/11/08 04:36:27;;;;;;;1.23;0.57;;;11.10;99.90;;;;;;4960150;28;20408;-38
2022/11/08 04:38:53;;;;;;;3.75;1.10;;;11.10;99.90;;;;;;4951030;28;20043;-38
2022/11/08 04:41:21;;;;;;;3.80;1.00;;;11.10;99.90;;;;;;4971484;28;20472;-38
2022/11/08 04:43:48;;;;;;;6.45;1.95;;;11.10;99.90;;;;;;4960416;28;20042;-38
2022/11/08 04:46:20;;;;;;;3.33;1.13;;;11.10;99.90;;;;;;4969627;28;20054;-38
2022/11/08 04:48:46;;;;;;;4.65;1.30;;;11.00;99.90;;;;;;4951863;28;20412;-38
2022/11/08 04:51:20;;;;;;;4.68;1.00;;;11.00;99.90;;;;;;4972209;28;20113;-38
2022/11/08 04:53:46;;;;;;;5.05;1.00;;;10.90;99.90;;;;;;4968023;28;20035;-38
2022/11/08 04:56:15;;;;;;;5.38;1.10;;;10.90;99.90;;;;;;4966994;28;20050;-38
2022/11/08 04:58:43;;;;;;;3.67;1.10;;;10.90;99.90;;;;;;4968554;28;20043;-37
2022/11/08 05:01:13;;;;;;;3.53;1.00;;;10.90;99.90;;;;;;4968189;28;20073;-38
2022/11/08 05:03:38;;;;;;;3.60;0.90;;;10.90;99.90;;;;;;4969894;28;20118;-38
2022/11/08 05:06:09;;;;;;;5.90;1.30;;;10.90;99.90;;;;;;4971231;28;20154;-38
2022/11/08 05:08:34;;;;;;;4.53;1.10;;;10.90;99.90;;;;;;4968285;28;20043;-39
2022/11/08 05:11:06;;;;;;;7.00;1.33;;;10.90;99.90;;;;;;4967915;28;20066;-39
2022/11/08 05:13:33;;;;;;;3.67;1.63;;;10.90;99.90;;;;;;4965556;28;20117;-38
2022/11/08 05:16:03;;;;;;;6.05;1.05;;;10.90;99.90;;;;;;4970718;28;20050;-38
2022/11/08 05:18:30;;;;;;;7.90;1.35;;;10.90;99.90;;;;;;4970555;28;20046;-38
2022/11/08 05:23:42;;;;;;;6.15;1.35;;;10.80;99.90;;;;;;4964515;28;20078;-38
2022/11/08 05:26:09;;;;;;;5.68;1.50;;;10.80;99.90;;;;;;4970521;28;20043;-38
2022/11/08 05:28:34;;;;;;;4.20;1.15;;;10.80;99.90;;;;;;4969629;28;20039;-38
2022/11/08 05:31:01;;;;;;;3.17;1.00;;;10.80;99.90;;;;;;4947602;28;20089;-39
2022/11/08 05:33:26;;;;;;;5.63;0.95;;;10.80;99.90;;;;;;4972008;28;20396;-39
2022/11/08 05:35:52;;;;;;;4.28;1.15;;;10.80;99.90;;;;;;4967590;28;20062;-38
2022/11/08 05:38:18;;;;;;;2.30;0.90;;;10.80;99.90;;;;;;4965375;28;20496;-38
2022/11/08 05:40:44;;;;;;;5.15;1.95;;;10.80;99.90;;;;;;4969598;28;20043;-38
2022/11/08 05:43:10;;;;;;;3.08;0.80;;;10.80;99.90;;;;;;4970205;28;20101;-38
2022/11/08 05:45:36;;;;;;;3.63;1.05;;;10.80;99.90;;;;;;4967251;28;20066;-38
2022/11/08 05:48:04;;;;;;;5.22;1.17;;;10.90;99.90;;;;;;4967445;28;20045;-38
2022/11/08 05:50:33;;;;;;;5.28;0.77;;;10.90;99.90;;;;;;4967352;28;20047;-39
2022/11/08 05:53:00;;;;;;;2.88;0.88;;;10.90;99.90;;;;;;4967926;28;20043;-37
2022/11/08 05:55:25;;;;;;;4.35;1.20;;;10.90;99.90;;;;;;4968015;28;20042;-38
2022/11/08 05:57:51;;;;;;;3.05;0.80;;;10.90;99.90;;;;;;4971170;28;20039;-38
2022/11/08 06:00:18;;;;;;;4.18;1.00;;;10.90;99.90;;;;;;4968123;28;20062;-39
2022/11/08 06:02:43;;;;;;;5.15;1.10;;;10.90;99.90;;;;;;4968481;28;20507;-38
2022/11/08 06:05:10;;;;;;;5.70;1.08;;;10.90;99.90;;;;;;4966911;28;20062;-37
2022/11/08 06:07:36;;;;;;;5.88;1.00;;;10.80;99.90;;;;;;4967945;28;20047;-38
2022/11/08 06:10:03;;;;;;;10.30;2.65;;;10.90;99.90;;;;;;4962001;28;20038;-38
2022/11/08 06:12:29;;;;;;;5.30;1.13;;;10.80;99.90;;;;;;4953221;28;20119;-38
2022/11/08 06:14:54;;;;;;;5.10;0.90;;;10.80;99.90;;;;;;4968871;28;20042;-38
2022/11/08 06:17:20;;;;;;;3.42;1.00;;;10.70;99.90;;;;;;4963678;28;20125;-39
2022/11/08 06:19:46;;;;;;;3.70;0.85;;;10.70;99.90;;;;;;4968962;28;20030;-38
2022/11/08 06:22:11;;;;;;;3.30;0.70;;;10.80;99.90;;;;;;4946096;28;20042;-39
2022/11/08 06:24:37;;;;;;;5.35;0.90;;;10.80;99.90;;;;;;4964134;28;20440;-38
2022/11/08 06:27:03;;;;;;;2.17;0.88;;;10.80;99.90;;;;;;4970261;28;20043;-38
2022/11/08 06:29:28;;;;;;;5.03;1.20;;;10.80;99.90;;;;;;4962111;28;20050;-38
2022/11/08 06:31:54;;;;;;;2.60;1.00;;;10.80;99.90;;;;;;4962776;28;20035;-39
2022/11/08 06:34:20;;;;;;;4.78;0.93;;;10.90;99.90;;;;;;4936723;28;20041;-38
2022/11/08 06:36:45;;;;;;;7.65;1.00;;;10.90;99.90;;;;;;4948283;28;20109;-39
2022/11/08 06:39:11;;;;;;;6.07;1.50;;;10.90;99.90;;;;;;4960068;28;20066;-38
2022/11/08 06:41:37;;;;;;;3.08;0.90;;;10.90;99.90;;;;;;4964976;28;20042;-39
2022/11/08 06:44:03;;;;;;;6.78;1.23;;;11.00;99.90;;;;;;4965694;28;20049;-37
2022/11/08 06:46:28;;;;;;;7.13;1.27;;;11.00;99.90;;;;;;4961921;28;20101;-38
2022/11/08 06:48:54;;;;;;;3.67;1.00;;;11.00;99.90;;;;;;4961620;28;20105;-38
2022/11/08 06:51:20;;;;;;;3.72;1.15;;;11.10;99.90;;;;;;4964192;28;20053;-39
2022/11/08 06:53:46;;;;;;;4.53;1.15;;;11.10;99.90;;;;;;4964874;28;20038;-38
2022/11/08 06:56:11;;;;;;;5.30;1.83;;;11.10;99.90;;;;;;4960953;28;20035;-38
2022/11/08 06:58:37;;;;;;;3.38;1.00;;;11.10;99.90;;;;;;4963701;28;20077;-38
2022/11/08 07:01:05;;;;;;;4.20;1.00;;;11.10;99.90;;;;;;4952457;28;20031;-38
2022/11/08 07:03:31;;;;;;;8.40;1.10;;;11.10;99.90;;;;;;4957617;28;20038;-38
2022/11/08 07:06:00;;;;;;;4.65;1.23;;;11.10;99.90;;;;;;4960476;28;20496;-38
2022/11/08 07:08:25;;;;;;;6.75;1.50;;;11.10;99.90;;;;;;4961209;28;20105;-38
2022/11/08 07:10:51;;;;;;;4.82;1.45;;;11.10;99.90;;;;;;4962004;28;20031;-38
2022/11/08 07:13:17;;;;;;;5.88;1.60;;;11.10;99.90;;;;;;4959793;28;20097;-38
2022/11/08 07:15:42;;;;;;;3.13;1.10;;;11.10;99.90;;;;;;4962788;28;20034;-38
2022/11/08 07:18:10;;;;;;;4.78;1.00;;;11.20;99.90;;;;;;4968301;28;20377;-38
2022/11/08 07:20:36;;;;;;;5.38;1.10;;;11.20;99.90;;;;;;4967796;28;20097;-37
2022/11/08 07:23:02;;;;;;;3.33;1.30;;;11.20;99.90;;;;;;4969880;28;20035;-37
2022/11/08 07:25:29;;;;;;;6.10;1.35;;;11.20;99.90;;;;;;4970617;28;20049;-38
2022/11/08 07:27:56;;;;;;;4.15;1.35;;;11.20;99.90;;;;;;4969760;28;20054;-37
2022/11/08 07:30:22;;;;;;;4.40;1.13;;;11.30;99.90;;;;;;4961932;28;20075;-38
2022/11/08 07:32:47;;;;;;;6.20;1.38;;;11.30;99.90;;;;;;4961875;28;20123;-38
2022/11/08 07:35:13;;;;;;;3.13;1.40;;;11.30;99.90;;;;;;4964020;28;20050;-37
2022/11/08 07:37:39;;;;;;;5.63;1.30;;;11.40;99.90;;;;;;4968821;28;20035;-38
2022/11/08 07:40:05;;;;;;;3.70;1.45;;;11.40;99.90;;;;;;4968726;28;20037;-38
2022/11/08 07:42:34;;;;;;;3.53;1.10;;;11.40;99.90;;;;;;4968778;28;20053;-38
2022/11/08 07:45:00;;;;;;;4.60;1.20;;;11.50;99.90;;;;;;4969474;28;20066;-38
2022/11/08 07:47:25;;;;;;;5.38;1.50;;;11.50;99.90;;;;;;4968612;28;20050;-38
2022/11/08 07:49:51;;;;;;;2.90;1.20;;;11.50;99.90;;;;;;4967261;28;20043;-38
2022/11/08 07:52:17;;;;;;;5.15;1.40;;;11.50;99.90;;;;;;4969848;28;20535;-39
2022/11/08 07:54:43;;;;;;;5.38;1.38;;;11.50;99.90;;;;;;4952499;28;20043;-38
2022/11/08 07:57:09;;;;;;;4.22;1.23;;;11.60;99.90;;;;;;4968630;28;20038;-38
2022/11/08 07:59:35;;;;;;;6.00;1.52;;;11.60;99.90;;;;;;4963767;28;20138;-38
2022/11/08 08:02:00;;;;;;;4.00;1.40;;;11.70;99.90;;;;;;4967906;28;20223;-38
2022/11/08 08:04:28;;;;;;;7.07;1.77;;;11.70;99.90;;;;;;4968053;28;20053;-38
2022/11/08 08:06:54;;;;;;;6.10;1.83;;;11.70;99.90;;;;;;4967615;28;20459;-38
2022/11/08 08:09:20;;;;;;;4.70;1.60;;;11.70;99.90;;;;;;4955260;28;20050;-38
2022/11/08 08:11:45;;;;;;;4.90;1.58;;;11.70;99.90;;;;;;4969383;28;20043;-39
2022/11/08 08:14:11;;;;;;;4.85;1.35;;;11.80;99.90;;;;;;4969345;28;20035;-38
2022/11/08 08:16:36;;;;;;;5.63;1.50;;;11.80;99.90;;;;;;4967507;28;20053;-39
2022/11/08 08:19:03;;;;;;;5.80;1.40;;;11.90;99.90;;;;;;4968818;28;20054;-38
2022/11/08 08:21:29;;;;;;;6.22;1.50;;;11.90;99.90;;;;;;4969216;28;20042;-39
2022/11/08 08:23:54;;;;;;;4.63;1.40;;;12.00;99.90;;;;;;4972744;28;20046;-39
2022/11/08 08:26:20;;;;;;;4.88;1.30;;;12.00;99.90;;;;;;4970976;28;20042;-37
2022/11/08 08:28:45;;;;;;;3.85;1.05;;;12.00;99.90;;;;;;4972382;28;20074;-38
2022/11/08 08:31:11;;;;;;;3.67;1.00;;;12.10;99.90;;;;;;4967982;28;20073;-38
2022/11/08 08:33:37;;;;;;;5.10;1.15;;;12.10;99.90;;;;;;4968455;28;20053;-38
2022/11/08 08:36:03;;;;;;;3.90;1.35;;;12.10;99.90;;;;;;4956995;28;20485;-38
2022/11/08 08:38:30;;;;;;;5.00;1.38;;;12.20;99.90;;;;;;4973029;28;20026;-38
2022/11/08 08:40:56;;;;;;;5.30;1.20;;;12.20;99.90;;;;;;4973547;28;20042;-38
2022/11/08 08:43:22;;;;;;;3.85;1.02;;;12.30;99.90;;;;;;4973915;28;20047;-39
2022/11/08 08:45:48;;;;;;;4.15;1.23;;;12.30;99.90;;;;;;4964490;28;20485;-38
2022/11/08 08:48:14;;;;;;;3.75;1.02;;;12.40;99.90;;;;;;4968294;28;20157;-38
2022/11/08 08:50:40;;;;;;;3.72;1.15;;;12.40;99.90;;;;;;4965666;28;20039;-39
2022/11/08 08:53:06;;;;;;;5.47;1.20;;;12.50;99.90;;;;;;4968763;28;20031;-38
2022/11/08 08:55:34;;;;;;;4.68;1.38;;;12.50;99.90;;;;;;4969075;28;20039;-38
2022/11/08 08:58:00;;;;;;;3.97;1.30;;;12.50;99.90;;;;;;4972994;28;20504;-38
2022/11/08 09:00:25;;;;;;;3.63;1.08;;;12.60;99.90;;;;;;4971088;28;20039;-38
2022/11/08 09:02:51;;;;;;;4.15;1.30;;;12.60;99.90;;;;;;4978361;28;20130;-37
2022/11/08 09:05:17;;;;;;;3.38;1.00;;;12.60;99.90;;;;;;4973217;28;20074;-38
2022/11/08 09:07:42;;;;;;;3.30;1.02;;;12.70;99.90;;;;;;4976474;28;20047;-38
2022/11/08 09:10:09;;;;;;;2.40;1.05;;;12.70;99.90;;;;;;4973884;28;20542;-38
2022/11/08 09:12:35;;;;;;;5.38;1.52;;;12.80;99.90;;;;;;4971552;28;20039;-38
2022/11/08 09:15:02;;;;;;;6.53;1.20;;;12.80;99.90;;;;;;4957579;28;20035;-38
2022/11/08 09:17:28;;;;;;;4.63;0.90;;;12.90;99.90;;;;;;4971812;28;20042;-38
2022/11/08 09:19:54;;;;;;;5.65;1.30;;;12.90;99.90;;;;;;4972025;28;20039;-38
2022/11/08 09:22:19;;;;;;;3.53;0.93;;;12.90;99.90;;;;;;4971841;28;20081;-38
2022/11/08 09:24:45;;;;;;;4.57;0.98;;;12.90;99.90;;;;;;4971467;28;20047;-38
2022/11/08 09:27:10;;;;;;;3.28;1.10;;;13.00;99.90;;;;;;4973099;28;20122;-46
2022/11/08 09:29:36;;;;;;;2.25;0.73;;;13.00;99.90;;;;;;4972376;28;20041;-38
2022/11/08 09:32:02;;;;;;;3.17;1.00;;;13.00;99.90;;;;;;4968874;28;20492;-38
2022/11/08 09:34:27;;;;;;;2.97;0.98;;;13.00;99.90;;;;;;4972820;28;20508;-38
2022/11/08 09:36:54;;;;;;;5.85;1.08;;;13.00;99.90;;;;;;4956056;28;20039;-38
2022/11/08 09:39:20;;;;;;;3.50;1.10;;;13.00;99.90;;;;;;4973136;28;20500;-39
2022/11/08 09:42:11;;;;;;;5.95;0.90;;;13.00;99.90;;;;;;4973109;28;20053;-38
2022/11/08 09:45:06;;;;;;;3.53;1.10;;;13.00;99.90;;;;;;4968014;28;20444;-38
2022/11/08 09:47:40;;;;;;;2.88;0.93;;;13.00;99.90;;;;;;4964149;28;20058;-38
2022/11/08 09:50:27;;;;;;;6.25;1.10;;;13.00;99.90;;;;;;4973164;28;20089;-38
2022/11/08 09:53:06;;;;;;;5.68;1.08;;;13.00;99.90;;;;;;4967709;28;20714;-40
2022/11/08 09:55:42;;;;;;;4.22;0.90;;;13.00;99.90;;;;;;4973036;28;20039;-38
2022/11/08 09:58:39;;;;;;;3.70;1.00;;;13.10;99.90;;;;;;4971160;28;20411;-38
2022/11/08 10:01:10;;;;;;;4.32;1.02;;;13.10;99.90;;;;;;4969304;28;20195;-38
2022/11/08 10:03:36;;;;;;;5.68;1.38;;;13.20;99.90;;;;;;4969905;28;20480;-38
2022/11/08 10:06:20;;;;;;;4.10;1.10;;;13.20;99.90;;;;;;4969955;28;20038;-38
2022/11/08 10:09:09;;;;;;;6.43;1.10;;;13.20;99.90;;;;;;4969322;28;20043;-38
2022/11/08 10:12:21;;;;;;;2.45;0.93;;;13.30;99.90;;;;;;4970829;28;20044;-38
2022/11/08 10:15:14;;;;;;;3.35;1.00;;;13.30;99.90;;;;;;4938097;28;20057;-38
2022/11/08 10:17:43;;;;;;;3.20;0.95;;;13.30;99.90;;;;;;4954884;28;20058;-38
2022/11/08 10:20:19;;;;;;;2.67;1.17;;;13.30;99.90;;;;;;4949658;28;20404;-38
2022/11/08 10:22:55;;;;;;;3.35;1.20;;;13.30;99.90;;;;;;4969854;28;20050;-39
2022/11/08 10:25:43;;;;;;;4.82;0.95;;;13.20;99.90;;;;;;4969716;28;20043;-37
2022/11/08 10:28:14;;;;;;;1.40;0.63;;;13.20;99.90;;;;;;4953332;28;20496;-38
2022/11/08 10:30:44;;;;;;;2.20;0.82;;;13.20;99.90;;;;;;4968502;28;20047;-38
2022/11/08 10:33:21;;;;;;;2.08;0.98;;;13.20;99.90;;;;;;4951238;28;20051;-38
2022/11/08 10:36:09;;;;;;;4.30;1.00;;;13.20;99.90;;;;;;4960267;28;20177;-38
2022/11/08 10:39:07;;;;;;;1.73;0.57;;;13.10;99.90;;;;;;4967866;28;20062;-37
2022/11/08 10:41:39;;;;;;;2.30;1.10;;;13.10;99.90;;;;;;4969504;28;20043;-38
2022/11/08 10:44:23;;;;;;;5.32;1.00;;;13.20;99.90;;;;;;4970357;28;20073;-38
2022/11/08 10:46:54;;;;;;;1.95;0.70;;;13.20;99.90;;;;;;4970527;28;20411;-38
2022/11/08 10:49:37;;;;;;;3.17;1.00;;;13.20;99.90;;;;;;4970795;28;20078;-38
2022/11/08 10:52:16;;;;;;;4.03;0.90;;;13.30;99.90;;;;;;4970315;28;20049;-38
2022/11/08 10:54:41;;;;;;;4.15;1.00;;;13.40;99.90;;;;;;4969228;28;20038;-38
2022/11/08 10:57:09;;;;;;;2.30;0.95;;;13.50;99.90;;;;;;4970496;28;20035;-38
2022/11/08 10:59:34;;;;;;;6.55;0.90;;;13.60;99.90;;;;;;4968647;28;20604;-38
2022/11/08 11:02:00;;;;;;;1.75;1.00;;;13.70;99.90;;;;;;4969910;28;20159;-43
2022/11/08 11:04:31;;;;;;;3.92;0.85;;;13.70;99.90;;;;;;4970686;28;20039;-38
2022/11/08 11:07:25;;;;;;;5.38;1.10;;;13.80;99.50;;;;;;4956725;28;20050;-38
2022/11/08 11:09:51;;;;;;;2.40;0.70;;;13.80;99.50;;;;;;4966255;28;20122;-39
2022/11/08 11:12:16;;;;;;;3.15;0.95;;;13.80;99.20;;;;;;4968957;28;20133;-38
2022/11/08 11:14:42;;;;;;;1.95;0.75;;;13.90;99.30;;;;;;4955445;28;20420;-38
2022/11/08 11:17:18;;;;;;;3.22;0.95;;;13.90;99.30;;;;;;4966682;28;20141;-39
2022/11/08 11:19:52;;;;;;;3.95;0.90;;;13.90;98.80;;;;;;4963920;28;20054;-38
2022/11/08 11:22:31;;;;;;;2.47;0.80;;;13.80;99.40;;;;;;4966926;28;20563;-39
2022/11/08 11:25:22;;;;;;;3.63;1.17;;;13.80;99.00;;;;;;4962802;28;20107;-38
2022/11/08 11:27:59;;;;;;;2.72;1.00;;;13.80;99.30;;;;;;4963446;28;20058;-39
2022/11/08 11:30:31;;;;;;;2.83;0.95;;;13.80;99.50;;;;;;4968077;28;20046;-38
2022/11/08 11:33:05;;;;;;;2.67;0.75;;;13.80;99.50;;;;;;4967736;28;20508;-37
2022/11/08 11:35:42;;;;;;;2.70;0.82;;;13.90;99.40;;;;;;4964579;28;20108;-37
2022/11/08 11:38:34;;;;;;;3.58;0.80;;;13.80;99.90;;;;;;4969417;28;20042;-37
2022/11/08 11:41:03;;;;;;;2.33;0.63;;;13.90;99.90;;;;;;4957650;28;20043;-42
2022/11/08 11:43:41;;;;;;;3.95;0.90;;;13.90;99.90;;;;;;4965203;28;20035;-38
2022/11/08 11:46:19;;;;;;;3.22;0.90;;;14.00;99.60;;;;;;4968170;28;20142;-39
2022/11/08 11:48:49;;;;;;;3.53;0.88;;;14.00;99.60;;;;;;4971160;28;20051;-39
2022/11/08 11:51:14;;;;;;;3.53;0.70;;;14.10;99.50;;;;;;4969225;28;20043;-38
2022/11/08 11:53:41;;;;;;;4.43;0.60;;;14.20;99.50;;;;;;4973686;28;21630;-38
2022/11/08 11:56:12;;;;;;;2.28;0.60;;;14.40;98.40;;;;;;4973880;28;20444;-39
2022/11/08 11:58:43;;;;;;;5.85;0.65;;;14.60;97.90;;;;;;4973185;28;20515;-40
2022/11/08 12:01:45;;;;;;;2.28;0.80;;;14.70;97.80;;;;;;4974057;28;20594;-39
2022/11/08 12:04:48;;;;;;;4.53;0.90;;;14.70;97.10;;;;;;4977946;28;20053;-39
2022/11/08 12:07:24;;;;;;;3.20;1.00;;;14.60;97.80;;;;;;4972451;28;20314;-39
2022/11/08 12:10:20;;;;;;;2.40;0.70;;;14.60;98.00;;;;;;4975025;28;20046;-39
2022/11/08 12:13:03;;;;;;;2.55;0.70;;;14.50;98.00;;;;;;4973202;28;20047;-39
2022/11/08 12:15:44;;;;;;;3.50;0.80;;;14.40;98.50;;;;;;4972771;28;20094;-39
2022/11/08 12:18:34;;;;;;;5.72;1.38;;;14.40;98.20;;;;;;4973111;28;20075;-41
2022/11/08 12:21:09;;;;;;;1.90;0.70;;;14.30;99.10;;;;;;4974910;28;20062;-39
2022/11/08 12:23:53;;;;;;;3.72;0.80;;;14.30;97.80;;;;;;4971265;28;20129;-39
2022/11/08 12:26:48;;;;;;;2.45;0.80;;;14.30;98.20;;;;;;4975546;28;20078;-39
2022/11/08 12:29:30;;;;;;;3.38;0.90;;;14.20;98.40;;;;;;4955766;28;20043;-39
2022/11/08 12:32:25;;;;;;;2.55;0.90;;;14.20;99.20;;;;;;4972456;28;20050;-39
2022/11/08 12:35:32;;;;;;;5.60;1.48;;;14.20;98.20;;;;;;4971021;28;20399;-39
2022/11/08 12:38:15;;;;;;;2.40;0.65;;;14.30;98.20;;;;;;4951475;28;20042;-38
2022/11/08 12:40:58;;;;;;;4.35;1.33;;;14.30;98.50;;;;;;4949213;28;20106;-40
2022/11/08 12:43:26;;;;;;;2.80;0.80;;;14.40;98.00;;;;;;4965448;28;20492;-39
2022/11/08 12:46:07;;;;;;;1.58;0.77;;;14.70;98.60;;;;;;4972843;28;20058;-39
2022/11/08 12:49:00;;;;;;;3.47;0.80;;;15.40;97.70;;;;;;4973248;28;20484;-39
2022/11/08 12:52:01;;;;;;;4.20;1.05;;;16.10;96.00;;;;;;4968934;28;20046;-40
2022/11/08 12:54:51;;;;;;;3.55;0.70;;;16.10;93.10;;;;;;4949442;28;20068;-39
2022/11/08 12:57:21;;;;;;;2.75;0.75;;;16.10;94.60;;;;;;4971048;28;20035;-38
2022/11/08 12:59:46;;;;;;;6.07;0.95;;;16.70;95.00;;;;;;4972677;28;20038;-39
2022/11/08 13:02:25;;;;;;;2.80;0.80;;;17.20;93.30;;;;;;4972063;28;20521;-38
2022/11/08 13:05:06;;;;;;;4.00;0.90;;;17.60;92.00;;;;;;4971761;28;20484;-39
2022/11/08 13:08:02;;;;;;;3.53;0.80;;;17.80;90.70;;;;;;4971360;28;20500;-39
2022/11/08 13:10:46;;;;;;;2.85;0.70;;;17.90;91.00;;;;;;4973642;28;20043;-40
2022/11/08 13:13:14;;;;;;;1.85;0.68;;;17.80;90.40;;;;;;4965040;28;20039;-42
2022/11/08 13:16:13;;;;;;;4.22;0.75;;;17.80;90.80;;;;;;4971456;28;20086;-39
2022/11/08 13:18:45;;;;;;;1.65;0.60;;;18.00;89.80;;;;;;4965732;28;20550;-39
2022/11/08 13:21:26;;;;;;;2.35;0.60;;;18.10;88.60;;;;;;4973351;28;20547;-39
2022/11/08 13:23:53;;;;;;;1.98;0.70;;;18.20;87.30;;;;;;4973265;28;20101;-42